Time;durP1;ratioP1;P1;durP2;ratioP2;P2;SDS_P1;SDS_P2;PMS_P1;PMS_P2;Temp;Humidity;BMP_temperature;BMP_pressure;BME280_temperature;BME280_humidity;BME280_pressure;Samples;Min_cycle;Max_cycle;Signal;HPM_P1;HPM_P2
2021/01/23 00:00:29;;;;;;;7.60;2.13;;;4.80;94.00;12.40;97419.00;;;;5050188;28;20228;-71
2021/01/23 00:02:54;;;;;;;6.33;2.60;;;4.80;94.00;12.40;97425.00;;;;5066607;28;20206;-68
2021/01/23 00:05:20;;;;;;;5.70;2.27;;;4.80;94.00;12.40;97422.00;;;;5050863;28;20182;-68
2021/01/23 00:07:46;;;;;;;5.13;2.20;;;4.80;94.00;12.40;97400.00;;;;5049060;28;20603;-69
2021/01/23 00:10:12;;;;;;;5.07;2.50;;;4.90;94.30;12.40;97412.00;;;;5048645;28;20252;-70
2021/01/23 00:12:38;;;;;;;5.95;2.60;;;4.80;94.10;12.40;97405.00;;;;5066047;28;20186;-69
2021/01/23 00:15:05;;;;;;;8.77;2.73;;;4.80;94.10;12.30;97405.00;;;;5032783;28;20232;-70
2021/01/23 00:17:31;;;;;;;5.88;2.20;;;4.80;94.10;12.30;97407.00;;;;5048179;28;20273;-68
2021/01/23 00:19:56;;;;;;;7.13;2.03;;;4.90;94.20;12.40;97384.00;;;;5049043;28;20257;-69
2021/01/23 00:22:22;;;;;;;5.80;2.40;;;4.90;94.20;12.30;97384.00;;;;5032615;28;20549;-69
2021/01/23 00:24:48;;;;;;;7.67;2.57;;;4.90;94.20;12.50;97383.00;;;;5051191;28;20648;-69
2021/01/23 00:27:13;;;;;;;8.23;2.60;;;4.90;94.20;12.30;97398.00;;;;5032559;28;20178;-68
2021/01/23 00:29:39;;;;;;;6.90;1.93;;;4.90;94.20;12.50;97388.00;;;;5049292;28;20887;-69
2021/01/23 00:32:05;;;;;;;7.07;2.23;;;4.90;94.20;12.60;97385.00;;;;5049161;28;20241;-68
2021/01/23 00:34:31;;;;;;;5.30;2.40;;;4.90;94.30;12.50;97388.00;;;;5049627;28;20209;-69
2021/01/23 00:36:56;;;;;;;6.50;2.20;;;4.90;94.40;12.60;97399.00;;;;5048691;28;20186;-69
2021/01/23 00:39:22;;;;;;;6.67;2.43;;;4.90;94.30;12.50;97401.00;;;;5050657;28;20204;-69
2021/01/23 00:41:48;;;;;;;6.73;2.37;;;4.90;94.30;12.60;97383.00;;;;5049455;28;20492;-68
2021/01/23 00:44:14;;;;;;;9.53;2.90;;;4.90;94.30;12.60;97369.00;;;;5033337;28;20214;-69
2021/01/23 00:46:39;;;;;;;7.60;2.00;;;4.90;94.30;12.60;97388.00;;;;5016001;28;20443;-70
2021/01/23 00:49:05;;;;;;;5.93;2.20;;;4.90;94.30;12.60;97381.00;;;;5049512;28;20206;-69
2021/01/23 00:51:31;;;;;;;6.20;2.47;;;4.90;94.40;12.50;97359.00;;;;5050389;28;20615;-69
2021/01/23 00:53:56;;;;;;;5.93;2.33;;;4.90;94.40;12.50;97365.00;;;;5049510;28;20202;-69
2021/01/23 00:56:22;;;;;;;7.77;2.77;;;4.90;94.40;12.50;97369.00;;;;5032613;28;20212;-69
2021/01/23 00:58:48;;;;;;;5.10;2.50;;;4.90;94.40;12.40;97378.00;;;;5016106;28;20283;-69
2021/01/23 01:01:13;;;;;;;5.37;2.60;;;4.90;94.40;12.50;97365.00;;;;5050398;28;20197;-70
2021/01/23 01:03:39;;;;;;;6.17;2.50;;;4.90;94.50;12.50;97371.00;;;;5016196;28;20206;-69
2021/01/23 01:06:05;;;;;;;6.20;2.60;;;4.90;94.90;12.50;97376.00;;;;5048889;28;20186;-69
2021/01/23 01:08:31;;;;;;;5.20;2.17;;;5.00;94.50;12.50;97382.00;;;;5049002;28;20529;-69
2021/01/23 01:10:56;;;;;;;6.43;2.40;;;5.00;94.50;12.60;97380.00;;;;5048592;28;20205;-68
2021/01/23 01:13:22;;;;;;;4.50;2.20;;;5.00;94.50;12.50;97385.00;;;;5048931;28;20681;-69
2021/01/23 01:15:49;;;;;;;9.00;3.30;;;5.00;94.50;12.60;97374.00;;;;5032024;28;20248;-69
2021/01/23 01:18:14;;;;;;;5.35;2.10;;;5.00;94.50;12.50;97374.00;;;;5032056;28;20550;-70
2021/01/23 01:20:40;;;;;;;7.43;2.70;;;5.00;94.60;12.40;97381.00;;;;5016066;28;20186;-69
2021/01/23 01:23:06;;;;;;;5.00;2.10;;;5.00;94.90;12.40;97375.00;;;;5047887;28;20340;-69
2021/01/23 01:25:32;;;;;;;6.00;2.60;;;5.00;94.60;12.60;97354.00;;;;5015944;28;20453;-70
2021/01/23 01:27:57;;;;;;;6.03;1.83;;;5.00;94.60;12.50;97364.00;;;;5016195;28;20206;-69
2021/01/23 01:30:23;;;;;;;5.60;2.60;;;5.00;94.60;12.40;97351.00;;;;5049936;28;20214;-69
2021/01/23 01:32:49;;;;;;;5.17;2.00;;;5.00;94.60;12.50;97364.00;;;;5016156;28;20615;-69
2021/01/23 01:35:16;;;;;;;5.50;2.25;;;5.00;94.70;12.60;97374.00;;;;5048839;28;20228;-69
2021/01/23 01:37:43;;;;;;;8.25;2.58;;;5.00;95.00;12.70;97378.00;;;;5031282;28;20186;-69
2021/01/23 01:40:10;;;;;;;6.78;2.42;;;5.00;94.70;12.60;97373.00;;;;5016233;28;20239;-68
2021/01/23 01:42:40;;;;;;;3.97;2.13;;;5.00;94.60;12.70;97382.00;;;;5048581;28;20233;-69
2021/01/23 01:45:07;;;;;;;4.55;2.40;;;5.00;94.60;12.80;97374.00;;;;5032180;28;20635;-69
2021/01/23 01:47:37;;;;;;;6.70;2.10;;;5.00;94.60;12.60;97363.00;;;;5047656;28;20210;-69
2021/01/23 01:50:04;;;;;;;5.85;2.22;;;5.00;94.70;12.50;97354.00;;;;4998757;28;20214;-70
2021/01/23 01:52:30;;;;;;;5.07;2.28;;;5.00;94.70;12.50;97358.00;;;;5015236;28;20260;-69
2021/01/23 01:54:55;;;;;;;7.00;2.30;;;5.00;94.60;12.80;97355.00;;;;5031630;28;20611;-70
2021/01/23 01:57:22;;;;;;;5.80;2.27;;;5.00;94.60;12.60;97358.00;;;;5049444;28;20182;-69
2021/01/23 01:59:48;;;;;;;5.90;2.55;;;5.10;94.70;12.60;97358.00;;;;4998511;28;20329;-69
2021/01/23 02:02:28;;;;;;;5.15;1.90;;;5.10;94.70;12.60;97351.00;;;;5031840;28;20236;-69
2021/01/23 02:05:03;;;;;;;4.18;1.88;;;5.10;94.70;12.60;97346.00;;;;5032300;28;20231;-68
2021/01/23 02:07:29;;;;;;;6.15;2.50;;;5.10;94.70;12.70;97350.00;;;;5049209;28;20174;-69
2021/01/23 02:10:15;;;;;;;6.33;2.00;;;5.10;94.70;12.80;97343.00;;;;5049134;28;20216;-70
2021/01/23 02:13:18;;;;;;;5.00;2.10;;;5.10;94.70;12.60;97338.00;;;;5048075;28;20719;-69
2021/01/23 02:16:09;;;;;;;5.82;2.40;;;5.10;94.70;12.90;97336.00;;;;5031585;28;20189;-69
2021/01/23 02:18:57;;;;;;;5.63;2.10;;;5.10;94.70;12.90;97338.00;;;;5018190;28;20198;-69
2021/01/23 02:21:54;;;;;;;5.63;2.67;;;5.10;94.70;12.50;97328.00;;;;5034785;28;20186;-69
2021/01/23 02:24:24;;;;;;;5.20;2.30;;;5.10;94.80;12.70;97321.00;;;;5019415;28;20244;-69
2021/01/23 02:27:08;;;;;;;4.88;2.03;;;5.10;94.70;12.60;97343.00;;;;5014916;28;20252;-69
2021/01/23 02:29:55;;;;;;;6.60;2.40;;;5.10;94.80;12.80;97329.00;;;;5047864;28;20300;-69
2021/01/23 02:32:21;;;;;;;6.38;2.10;;;5.10;94.80;12.60;97333.00;;;;5049511;28;20261;-70
2021/01/23 02:34:46;;;;;;;3.90;1.93;;;5.10;94.80;12.40;97316.00;;;;5014645;28;20328;-69
2021/01/23 02:37:12;;;;;;;4.90;2.40;;;5.10;94.80;12.50;97315.00;;;;5014971;28;20268;-70
2021/01/23 02:39:38;;;;;;;5.10;2.20;;;5.10;94.80;12.90;97314.00;;;;5031212;28;20676;-69
2021/01/23 02:42:04;;;;;;;4.50;2.00;;;5.10;94.90;12.90;97315.00;;;;5030678;28;20682;-69
2021/01/23 02:44:30;;;;;;;5.60;2.30;;;5.10;94.90;12.80;97311.00;;;;5048068;28;20496;-69
2021/01/23 02:46:57;;;;;;;9.80;2.43;;;5.10;94.90;12.90;97297.00;;;;5047675;28;20260;-69
2021/01/23 02:49:22;;;;;;;4.20;1.55;;;5.10;94.90;12.70;97308.00;;;;5048701;28;20230;-69
2021/01/23 02:51:51;;;;;;;5.17;2.13;;;5.10;94.90;12.80;97295.00;;;;5031479;28;20268;-68
2021/01/23 02:54:49;;;;;;;4.50;2.33;;;5.10;94.90;12.80;97284.00;;;;5046952;28;20460;-69
2021/01/23 02:57:15;;;;;;;6.20;2.35;;;5.10;94.90;12.70;97282.00;;;;5032956;28;20273;-68
2021/01/23 02:59:40;;;;;;;5.73;2.13;;;5.20;95.00;12.80;97292.00;;;;5032142;28;20293;-69
2021/01/23 03:02:11;;;;;;;7.57;2.40;;;5.20;95.00;12.80;97285.00;;;;5034870;28;20210;-69
2021/01/23 03:04:38;;;;;;;4.22;1.90;;;5.20;95.00;13.00;97288.00;;;;5034912;28;20201;-69
2021/01/23 03:07:03;;;;;;;4.88;2.20;;;5.20;95.10;12.90;97286.00;;;;5018033;28;20361;-68
2021/01/23 03:09:29;;;;;;;5.97;2.10;;;5.20;95.10;12.80;97281.00;;;;5017783;28;20287;-69
2021/01/23 03:11:55;;;;;;;5.03;2.00;;;5.20;95.00;12.80;97284.00;;;;5051612;28;20640;-68
2021/01/23 03:14:21;;;;;;;4.47;1.70;;;5.20;95.00;13.00;97279.00;;;;5052179;28;20199;-68
2021/01/23 03:16:51;;;;;;;4.87;2.50;;;5.20;95.00;12.90;97287.00;;;;5018408;28;20186;-68
2021/01/23 03:19:17;;;;;;;6.25;2.13;;;5.20;94.90;12.90;97281.00;;;;5034859;28;20435;-68
2021/01/23 03:21:43;;;;;;;7.72;2.28;;;5.20;95.00;12.80;97288.00;;;;5017806;28;20224;-68
2021/01/23 03:24:10;;;;;;;6.50;1.88;;;5.20;95.00;13.10;97294.00;;;;5034202;28;20676;-67
2021/01/23 03:26:36;;;;;;;4.85;1.70;;;5.20;94.90;12.80;97284.00;;;;5052872;28;20175;-67
2021/01/23 03:29:02;;;;;;;5.18;2.30;;;5.20;94.90;13.10;97289.00;;;;5034054;28;20233;-68
2021/01/23 03:31:28;;;;;;;4.15;1.80;;;5.20;94.90;13.10;97249.00;;;;5051123;28;20185;-68
2021/01/23 03:33:53;;;;;;;4.43;1.70;;;5.20;94.90;12.90;97281.00;;;;5017421;28;20218;-68
2021/01/23 03:36:19;;;;;;;3.83;1.90;;;5.20;94.90;12.80;97257.00;;;;5052007;28;20268;-69
2021/01/23 03:38:45;;;;;;;5.37;2.03;;;5.20;94.90;12.80;97253.00;;;;5050648;28;20670;-68
2021/01/23 03:41:11;;;;;;;4.93;1.90;;;5.20;94.90;12.70;97261.00;;;;5051147;28;20433;-68
2021/01/23 03:43:36;;;;;;;5.10;1.93;;;5.20;95.00;12.70;97254.00;;;;5050462;28;20285;-68
2021/01/23 03:46:02;;;;;;;5.70;2.20;;;5.20;94.90;12.90;97249.00;;;;5017050;28;20660;-69
2021/01/23 03:48:28;;;;;;;4.47;1.73;;;5.20;94.90;13.10;97227.00;;;;5034107;28;20214;-69
2021/01/23 03:50:53;;;;;;;5.60;1.90;;;5.20;94.90;13.00;97241.00;;;;5033244;28;20210;-68
2021/01/23 03:53:19;;;;;;;5.40;1.60;;;5.20;94.90;12.90;97248.00;;;;5051920;28;20748;-68
2021/01/23 03:55:45;;;;;;;3.93;2.00;;;5.20;94.90;13.00;97247.00;;;;5051917;28;20181;-68
2021/01/23 03:58:10;;;;;;;4.37;2.03;;;5.20;94.90;12.90;97252.00;;;;5033261;28;20284;-68
2021/01/23 04:00:36;;;;;;;5.77;2.07;;;5.20;94.90;13.00;97263.00;;;;5000929;28;20269;-69
2021/01/23 04:03:02;;;;;;;3.63;1.83;;;5.20;94.90;12.90;97253.00;;;;5050676;28;20194;-67
2021/01/23 04:05:27;;;;;;;3.50;1.57;;;5.20;95.00;12.80;97249.00;;;;5033325;28;20190;-69
2021/01/23 04:07:53;;;;;;;3.47;1.43;;;5.20;95.00;12.80;97245.00;;;;5050140;28;20198;-69
2021/01/23 04:10:19;;;;;;;5.23;2.23;;;5.30;95.10;12.80;97245.00;;;;5050451;28;20879;-68
2021/01/23 04:12:44;;;;;;;4.27;1.80;;;5.30;95.10;12.80;97238.00;;;;5032686;28;20206;-68
2021/01/23 04:15:12;;;;;;;5.63;2.10;;;5.20;95.10;12.90;97235.00;;;;5033466;28;20178;-68
2021/01/23 04:17:37;;;;;;;4.65;1.67;;;5.30;95.10;12.80;97240.00;;;;5051328;28;20675;-68
2021/01/23 04:20:04;;;;;;;4.83;2.33;;;5.30;95.10;12.80;97241.00;;;;5032968;28;20257;-70
2021/01/23 04:22:30;;;;;;;4.63;2.05;;;5.20;95.10;12.70;97231.00;;;;5033492;28;20218;-68
2021/01/23 04:24:55;;;;;;;3.93;1.70;;;5.30;95.20;12.80;97217.00;;;;5032664;28;20654;-67
2021/01/23 04:27:21;;;;;;;3.37;1.53;;;5.30;95.20;12.80;97245.00;;;;5051227;28;20631;-68
2021/01/23 04:29:47;;;;;;;3.73;1.67;;;5.30;95.20;12.70;97243.00;;;;5051084;28;20213;-68
2021/01/23 04:32:12;;;;;;;4.40;2.00;;;5.30;95.20;12.80;97227.00;;;;5032843;28;20218;-68
2021/01/23 04:34:38;;;;;;;3.80;1.63;;;5.30;95.20;13.00;97232.00;;;;5049489;28;20240;-68
2021/01/23 04:37:04;;;;;;;5.80;1.90;;;5.30;95.20;13.10;97227.00;;;;5049707;28;20270;-68
2021/01/23 04:39:30;;;;;;;3.90;1.57;;;5.30;95.20;13.10;97225.00;;;;5050269;28;20300;-68
2021/01/23 04:41:55;;;;;;;5.13;1.73;;;5.30;95.30;13.10;97226.00;;;;5032933;28;20244;-68
2021/01/23 04:44:21;;;;;;;4.40;1.43;;;5.30;95.30;13.10;97218.00;;;;5051053;28;20202;-68
2021/01/23 04:46:47;;;;;;;4.37;1.80;;;5.30;95.30;13.10;97215.00;;;;5049040;28;20695;-69
2021/01/23 04:49:12;;;;;;;4.10;1.77;;;5.30;95.30;13.00;97227.00;;;;5016643;28;20233;-67
2021/01/23 04:51:38;;;;;;;4.00;1.60;;;5.30;95.30;12.90;97228.00;;;;5033014;28;20186;-68
2021/01/23 04:54:05;;;;;;;3.97;2.23;;;5.30;95.20;12.90;97217.00;;;;5015978;28;20213;-69
2021/01/23 04:56:31;;;;;;;4.25;1.75;;;5.30;95.30;12.90;97222.00;;;;5016844;28;20178;-68
2021/01/23 04:58:56;;;;;;;4.47;2.20;;;5.30;95.40;13.00;97214.00;;;;5049523;28;20197;-68
2021/01/23 05:01:22;;;;;;;4.20;1.50;;;5.30;95.30;12.80;97197.00;;;;5048525;28;20539;-68
2021/01/23 05:04:01;;;;;;;4.37;1.90;;;5.30;95.30;13.00;97189.00;;;;5049035;28;20209;-68
2021/01/23 05:06:30;;;;;;;4.05;1.63;;;5.30;95.30;12.90;97194.00;;;;5032430;28;20178;-68
2021/01/23 05:08:56;;;;;;;6.05;1.95;;;5.40;95.40;12.90;97196.00;;;;5048939;28;20202;-68
2021/01/23 05:11:22;;;;;;;5.53;1.75;;;5.40;95.40;13.00;97183.00;;;;5048979;28;20174;-68
2021/01/23 05:14:14;;;;;;;4.90;2.08;;;5.30;95.70;12.90;97183.00;;;;5032274;28;20213;-69
2021/01/23 05:16:40;;;;;;;5.65;2.10;;;5.40;95.40;12.90;97181.00;;;;5048500;28;20188;-68
2021/01/23 05:19:06;;;;;;;4.47;2.60;;;5.40;95.40;12.90;97177.00;;;;5032638;28;20285;-68
2021/01/23 05:21:32;;;;;;;4.30;2.22;;;5.40;95.40;13.10;97170.00;;;;5031985;28;20571;-67
2021/01/23 05:24:12;;;;;;;4.00;2.20;;;5.40;95.40;13.00;97168.00;;;;5015369;28;20703;-69
2021/01/23 05:26:44;;;;;;;3.97;2.17;;;5.40;95.40;12.80;97185.00;;;;5018058;28;20213;-69
2021/01/23 05:29:14;;;;;;;5.50;2.38;;;5.40;95.50;13.00;97189.00;;;;5048593;28;20209;-69
2021/01/23 05:31:41;;;;;;;4.07;2.22;;;5.40;95.40;13.10;97188.00;;;;5016063;28;20182;-69
2021/01/23 05:34:26;;;;;;;4.45;2.30;;;5.40;95.50;13.10;97198.00;;;;5049213;28;20228;-69
2021/01/23 05:36:53;;;;;;;4.20;2.30;;;5.40;95.80;13.20;97200.00;;;;5031591;28;20206;-69
2021/01/23 05:39:19;;;;;;;4.38;1.95;;;5.40;95.40;13.20;97199.00;;;;5032375;28;20209;-69
2021/01/23 05:42:05;;;;;;;4.93;2.30;;;5.40;95.40;13.30;97200.00;;;;5048240;28;20218;-69
2021/01/23 05:44:31;;;;;;;4.25;2.15;;;5.40;95.40;13.10;97212.00;;;;5048574;28;20771;-68
2021/01/23 05:46:57;;;;;;;3.60;1.97;;;5.40;95.40;13.20;97200.00;;;;5048376;28;20189;-69
2021/01/23 05:49:22;;;;;;;4.30;2.40;;;5.40;95.40;13.10;97211.00;;;;5031904;28;20225;-69
2021/01/23 05:51:48;;;;;;;4.37;2.40;;;5.40;95.40;13.10;97206.00;;;;5031655;28;20174;-69
2021/01/23 05:54:14;;;;;;;5.03;2.67;;;5.40;95.40;13.20;97200.00;;;;5049753;28;20669;-69
2021/01/23 05:56:40;;;;;;;5.60;2.80;;;5.40;95.40;13.10;97200.00;;;;5049144;28;20197;-69
2021/01/23 05:59:06;;;;;;;4.32;2.45;;;5.40;95.40;13.00;97193.00;;;;5015521;28;20247;-70
2021/01/23 06:01:31;;;;;;;5.27;2.70;;;5.40;95.40;13.00;97200.00;;;;5014918;28;20194;-68
2021/01/23 06:03:58;;;;;;;4.00;2.70;;;5.40;95.40;13.10;97193.00;;;;5015032;28;20680;-68
2021/01/23 06:06:23;;;;;;;4.00;2.60;;;5.40;95.50;13.00;97212.00;;;;5016061;28;20273;-68
2021/01/23 06:08:51;;;;;;;4.37;2.77;;;5.40;95.50;12.90;97222.00;;;;5015303;28;20209;-68
2021/01/23 06:11:20;;;;;;;4.57;2.72;;;5.40;95.40;12.70;97215.00;;;;4998750;28;20228;-68
2021/01/23 06:13:49;;;;;;;4.35;2.60;;;5.40;95.40;13.10;97221.00;;;;5048543;28;20229;-68
2021/01/23 06:16:33;;;;;;;7.43;3.20;;;5.50;95.50;12.90;97231.00;;;;5032158;28;20186;-69
2021/01/23 06:19:04;;;;;;;4.30;2.92;;;5.50;95.50;12.80;97235.00;;;;5049291;28;20460;-68
2021/01/23 06:21:43;;;;;;;4.70;3.10;;;5.50;95.50;12.70;97229.00;;;;5032314;28;20174;-69
2021/01/23 06:24:12;;;;;;;5.03;3.30;;;5.50;95.60;12.90;97236.00;;;;5048016;28;20205;-68
2021/01/23 06:26:53;;;;;;;5.10;3.10;;;5.40;95.50;12.90;97234.00;;;;5032173;28;20749;-68
2021/01/23 06:29:44;;;;;;;5.47;3.22;;;5.50;95.60;12.80;97215.00;;;;5049720;28;20229;-68
2021/01/23 06:32:13;;;;;;;6.05;3.13;;;5.50;95.60;12.90;97222.00;;;;5031394;28;20231;-68
2021/01/23 06:35:01;;;;;;;5.65;3.60;;;5.50;95.60;12.90;97220.00;;;;5050907;28;20271;-68
2021/01/23 06:37:31;;;;;;;5.68;2.83;;;5.50;95.60;12.80;97211.00;;;;5053278;28;20182;-68
2021/01/23 06:40:06;;;;;;;4.57;2.90;;;5.50;95.70;13.00;97213.00;;;;5051902;28;20189;-68
2021/01/23 06:42:34;;;;;;;4.80;3.05;;;5.50;95.60;12.90;97188.00;;;;5053355;28;20232;-68
2021/01/23 06:45:27;;;;;;;5.95;3.83;;;5.50;95.60;12.90;97167.00;;;;5019136;28;20201;-68
2021/01/23 06:47:57;;;;;;;5.07;3.20;;;5.50;95.70;12.90;97162.00;;;;5033798;28;20210;-68
2021/01/23 06:50:55;;;;;;;6.28;3.72;;;5.50;95.70;12.80;97165.00;;;;5036354;28;20217;-68
2021/01/23 06:53:22;;;;;;;4.65;3.05;;;5.50;95.70;12.90;97190.00;;;;5022977;28;20225;-68
2021/01/23 06:55:52;;;;;;;6.63;4.00;;;5.50;95.70;13.10;97205.00;;;;5051916;28;20668;-68
2021/01/23 06:58:18;;;;;;;4.65;3.35;;;5.50;95.70;13.10;97238.00;;;;5051872;28;20662;-68
2021/01/23 07:00:55;;;;;;;4.95;3.50;;;5.50;95.70;13.20;97210.00;;;;5050844;28;20640;-69
2021/01/23 07:03:21;;;;;;;5.82;3.40;;;5.50;95.60;13.00;97263.00;;;;5036564;28;20198;-68
2021/01/23 07:06:00;;;;;;;5.30;3.00;;;5.50;95.60;12.90;97254.00;;;;5018582;28;20563;-69
2021/01/23 07:08:31;;;;;;;6.72;3.80;;;5.50;96.00;13.30;97277.00;;;;5035151;28;20562;-68
2021/01/23 07:11:13;;;;;;;5.80;3.38;;;5.50;95.90;13.10;97280.00;;;;5051441;28;20680;-68
2021/01/23 07:14:02;;;;;;;5.20;3.03;;;5.50;95.60;13.10;97289.00;;;;5050778;28;20289;-69
2021/01/23 07:16:30;;;;;;;6.10;3.35;;;5.50;95.60;12.90;97257.00;;;;5037945;28;20197;-68
2021/01/23 07:19:01;;;;;;;5.40;3.42;;;5.50;95.60;13.10;97302.00;;;;5020559;28;20214;-69
2021/01/23 07:21:29;;;;;;;4.68;2.92;;;5.50;95.60;13.30;97298.00;;;;5048175;28;20282;-70
2021/01/23 07:23:56;;;;;;;5.15;3.33;;;5.60;95.70;13.30;97297.00;;;;5066843;28;20201;-68
2021/01/23 07:26:22;;;;;;;6.32;3.30;;;5.60;95.70;13.20;97293.00;;;;5050724;28;20181;-68
2021/01/23 07:28:55;;;;;;;4.65;3.13;;;5.60;95.70;13.20;97286.00;;;;5049448;28;20206;-69
2021/01/23 07:31:22;;;;;;;4.35;2.70;;;5.50;96.00;13.20;97312.00;;;;5050562;28;20649;-69
2021/01/23 07:33:48;;;;;;;4.35;2.88;;;5.60;95.70;13.20;97321.00;;;;5049959;28;20478;-69
2021/01/23 07:36:46;;;;;;;5.97;3.43;;;5.60;95.80;13.30;97340.00;;;;5049712;28;20460;-68
2021/01/23 07:39:12;;;;;;;4.53;2.83;;;5.60;95.70;13.10;97335.00;;;;5049787;28;20453;-71
2021/01/23 07:41:52;;;;;;;5.03;3.00;;;5.60;95.70;13.30;97369.00;;;;5033074;28;20254;-71
2021/01/23 07:44:19;;;;;;;4.88;2.95;;;5.60;95.70;13.10;97370.00;;;;5050426;28;20230;-69
2021/01/23 07:46:47;;;;;;;6.45;3.22;;;5.60;95.70;13.20;97378.00;;;;5033520;28;20202;-69
2021/01/23 07:49:32;;;;;;;4.35;2.70;;;5.60;95.60;13.10;97381.00;;;;5017441;28;20213;-70
2021/01/23 07:52:08;;;;;;;5.45;2.83;;;5.60;95.70;13.10;97388.00;;;;5033748;28;20194;-69
2021/01/23 07:54:48;;;;;;;4.57;2.90;;;5.60;96.00;13.10;97416.00;;;;5048128;28;20198;-69
2021/01/23 07:57:14;;;;;;;4.38;2.60;;;5.60;95.70;13.10;97423.00;;;;5066891;28;20661;-68
2021/01/23 07:59:47;;;;;;;4.47;2.40;;;5.60;95.70;13.10;97442.00;;;;5050377;28;20200;-68
2021/01/23 08:02:13;;;;;;;4.95;2.65;;;5.60;95.70;13.20;97433.00;;;;5050136;28;20444;-68
2021/01/23 08:04:39;;;;;;;4.80;2.40;;;5.60;95.80;13.10;97454.00;;;;5033237;28;20207;-68
2021/01/23 08:07:25;;;;;;;5.00;3.00;;;5.60;95.70;13.30;97455.00;;;;5033177;28;20177;-68
2021/01/23 08:10:13;;;;;;;4.70;2.20;;;5.60;95.70;13.20;97470.00;;;;5049473;28;20479;-69
2021/01/23 08:13:04;;;;;;;4.40;2.38;;;5.60;95.70;13.10;97462.00;;;;5049931;28;20181;-68
2021/01/23 08:15:33;;;;;;;4.43;2.75;;;5.60;95.70;13.30;97471.00;;;;5030079;28;20257;-68
2021/01/23 08:18:00;;;;;;;6.22;3.15;;;5.60;95.70;13.20;97477.00;;;;5029121;28;20564;-68
2021/01/23 08:20:43;;;;;;;5.47;2.85;;;5.60;95.60;13.20;97485.00;;;;5013889;28;20187;-68
2021/01/23 08:23:14;;;;;;;5.88;2.95;;;5.60;95.60;13.30;97482.00;;;;5013923;28;20699;-69
2021/01/23 08:25:48;;;;;;;5.95;2.67;;;5.60;95.70;13.10;97479.00;;;;5011582;28;20182;-68
2021/01/23 08:28:16;;;;;;;5.07;2.83;;;5.60;95.60;13.10;97494.00;;;;5030614;28;20198;-68
2021/01/23 08:30:42;;;;;;;5.60;3.38;;;5.60;95.70;13.10;97485.00;;;;5029958;28;20277;-68
2021/01/23 08:33:10;;;;;;;6.20;3.10;;;5.60;95.60;13.20;97497.00;;;;5013412;28;20264;-68
2021/01/23 08:35:38;;;;;;;5.25;3.55;;;5.60;95.70;13.00;97495.00;;;;5029786;28;20233;-68
2021/01/23 08:38:05;;;;;;;6.50;4.13;;;5.60;95.70;13.10;97498.00;;;;5046286;28;20623;-68
2021/01/23 08:40:31;;;;;;;5.05;3.40;;;5.60;95.70;13.00;97515.00;;;;5045941;28;20187;-68
2021/01/23 08:42:57;;;;;;;6.00;3.63;;;5.60;95.80;13.00;97503.00;;;;5031047;28;20551;-68
2021/01/23 08:45:24;;;;;;;4.87;3.77;;;5.60;95.70;13.10;97517.00;;;;5030946;28;20424;-68
2021/01/23 08:47:49;;;;;;;6.47;4.50;;;5.70;95.80;13.00;97558.00;;;;5013119;28;20206;-68
2021/01/23 08:50:15;;;;;;;6.47;3.60;;;5.60;95.70;13.10;97548.00;;;;5013146;28;20218;-68
2021/01/23 08:52:41;;;;;;;5.90;4.10;;;5.60;95.60;13.20;97557.00;;;;5012770;28;20222;-68
2021/01/23 08:55:08;;;;;;;6.17;4.20;;;5.70;95.60;13.10;97564.00;;;;5030411;28;20214;-68
2021/01/23 08:57:34;;;;;;;6.60;4.43;;;5.70;95.60;13.10;97543.00;;;;5028895;28;20948;-69
2021/01/23 08:59:59;;;;;;;7.72;4.63;;;5.60;95.60;13.20;97576.00;;;;5012525;28;20186;-69
2021/01/23 09:02:25;;;;;;;7.40;6.00;;;5.70;95.80;13.60;97566.00;;;;5030726;28;20559;-69
2021/01/23 09:04:51;;;;;;;10.55;5.05;;;5.70;95.80;13.50;97567.00;;;;5012758;28;20183;-69
2021/01/23 09:07:17;;;;;;;6.63;4.40;;;5.70;95.90;13.70;97570.00;;;;5012708;28;20198;-68
2021/01/23 09:09:43;;;;;;;6.37;4.50;;;5.80;96.10;13.60;97583.00;;;;5044251;28;20439;-68
2021/01/23 09:12:09;;;;;;;6.35;4.18;;;5.80;96.10;13.70;97593.00;;;;5048446;28;20444;-68
2021/01/23 09:14:35;;;;;;;6.47;4.68;;;5.80;96.10;13.30;97589.00;;;;5047646;28;20522;-68
2021/01/23 09:17:01;;;;;;;5.67;4.37;;;5.80;96.00;13.30;97594.00;;;;5032191;28;20689;-68
2021/01/23 09:19:27;;;;;;;7.10;4.63;;;5.80;96.00;13.40;97598.00;;;;5048900;28;20431;-69
2021/01/23 09:21:53;;;;;;;6.45;4.70;;;5.70;95.80;13.30;97608.00;;;;5048825;28;20419;-68
2021/01/23 09:24:19;;;;;;;7.23;4.97;;;5.80;95.80;13.10;97605.00;;;;5015602;28;20212;-68
2021/01/23 09:26:45;;;;;;;6.47;4.60;;;5.80;95.80;13.10;97601.00;;;;5047706;28;20189;-69
2021/01/23 09:29:12;;;;;;;8.90;5.70;;;5.70;95.80;13.10;97595.00;;;;5047318;28;20202;-68
2021/01/23 09:31:38;;;;;;;7.65;5.65;;;5.80;95.80;13.40;97620.00;;;;5047942;28;20186;-68
2021/01/23 09:34:04;;;;;;;5.78;4.40;;;5.80;95.90;13.60;97606.00;;;;5031531;28;20263;-68
2021/01/23 09:36:30;;;;;;;6.43;4.60;;;5.80;95.90;13.30;97597.00;;;;5049436;28;20186;-68
2021/01/23 09:38:56;;;;;;;6.80;4.55;;;5.70;95.80;13.30;97604.00;;;;5048195;28;20205;-68
2021/01/23 09:41:22;;;;;;;6.73;5.00;;;5.80;95.80;13.30;97601.00;;;;5029875;28;20234;-68
2021/01/23 09:43:47;;;;;;;7.47;4.50;;;5.70;95.70;13.50;97608.00;;;;5047984;28;20641;-68
2021/01/23 09:46:13;;;;;;;6.30;4.33;;;5.80;95.80;13.50;97596.00;;;;5047897;28;20194;-69
2021/01/23 09:48:39;;;;;;;7.10;4.57;;;5.80;95.80;13.10;97612.00;;;;5030417;28;20202;-68
2021/01/23 09:51:05;;;;;;;5.60;4.10;;;5.80;95.80;13.30;97625.00;;;;5048320;28;20275;-68
2021/01/23 09:53:31;;;;;;;8.38;3.53;;;5.80;95.80;13.10;97628.00;;;;5048415;28;20209;-68
2021/01/23 09:55:57;;;;;;;5.75;3.50;;;5.80;95.80;13.20;97640.00;;;;5029296;28;20281;-68
2021/01/23 09:58:23;;;;;;;7.07;4.60;;;5.80;95.80;13.30;97650.00;;;;5048545;28;20619;-68
2021/01/23 10:00:49;;;;;;;5.40;3.60;;;5.80;96.10;13.10;97659.00;;;;5047953;28;20186;-68
2021/01/23 10:03:15;;;;;;;6.03;3.35;;;5.80;95.70;13.00;97657.00;;;;5030526;28;20562;-68
2021/01/23 10:05:41;;;;;;;5.85;3.38;;;5.70;96.00;13.10;97636.00;;;;5048273;28;20636;-68
2021/01/23 10:08:07;;;;;;;5.67;3.83;;;5.80;95.70;13.20;97664.00;;;;5049639;28;20205;-68
2021/01/23 10:10:32;;;;;;;4.88;2.92;;;5.70;95.70;13.10;97677.00;;;;5046619;28;20479;-69
2021/01/23 10:12:58;;;;;;;5.20;3.13;;;5.80;95.80;13.40;97670.00;;;;5048060;28;20210;-68
2021/01/23 10:15:24;;;;;;;4.73;2.90;;;5.80;95.80;13.20;97662.00;;;;5047755;28;20188;-68
2021/01/23 10:17:50;;;;;;;4.50;3.10;;;5.80;95.70;13.50;97671.00;;;;5047261;28;20622;-68
2021/01/23 10:20:15;;;;;;;5.73;3.40;;;5.80;95.70;13.40;97674.00;;;;5064617;28;20432;-68
2021/01/23 10:22:42;;;;;;;4.60;3.10;;;5.80;95.70;13.50;97672.00;;;;5047876;28;20186;-68
2021/01/23 10:25:08;;;;;;;4.38;2.90;;;5.80;95.70;13.50;97672.00;;;;5029226;28;20285;-68
2021/01/23 10:27:34;;;;;;;5.10;2.80;;;5.80;95.60;13.40;97670.00;;;;5064275;28;20185;-68
2021/01/23 10:30:00;;;;;;;5.72;3.20;;;5.70;95.70;13.50;97667.00;;;;5048077;28;20280;-68
2021/01/23 10:32:26;;;;;;;6.20;2.67;;;5.80;95.70;13.50;97668.00;;;;5045535;28;20227;-68
2021/01/23 10:34:52;;;;;;;4.37;2.60;;;5.80;95.80;13.50;97674.00;;;;5031306;28;20190;-68
2021/01/23 10:37:18;;;;;;;3.83;2.27;;;5.80;95.70;13.30;97671.00;;;;5047596;28;20946;-69
2021/01/23 10:39:44;;;;;;;4.20;2.60;;;5.80;95.70;13.70;97671.00;;;;5047043;28;20206;-68
2021/01/23 10:42:10;;;;;;;3.43;2.20;;;5.80;95.70;13.60;97687.00;;;;5047257;28;20233;-68
2021/01/23 10:44:41;;;;;;;4.20;2.50;;;5.80;95.70;13.60;97681.00;;;;5030787;28;20460;-68
2021/01/23 10:47:07;;;;;;;4.22;2.28;;;5.80;95.60;13.50;97677.00;;;;5047744;28;20179;-68
2021/01/23 10:49:34;;;;;;;4.30;2.28;;;5.80;96.00;13.70;97685.00;;;;5031488;28;20714;-68
2021/01/23 10:52:00;;;;;;;5.32;2.45;;;5.80;95.70;13.70;97676.00;;;;5047311;28;20197;-68
2021/01/23 10:54:26;;;;;;;3.97;2.30;;;5.80;95.60;13.50;97687.00;;;;5046816;28;20225;-68
2021/01/23 10:56:53;;;;;;;4.28;2.60;;;5.80;95.70;13.60;97644.00;;;;5046924;28;20436;-68
2021/01/23 10:59:19;;;;;;;3.55;1.95;;;5.80;95.70;13.30;97685.00;;;;5046345;28;20198;-68
2021/01/23 11:01:45;;;;;;;3.40;1.70;;;5.80;95.60;13.60;97684.00;;;;5046953;28;20646;-69
2021/01/23 11:04:10;;;;;;;3.60;1.90;;;5.80;95.60;13.50;97694.00;;;;5049220;28;20250;-68
2021/01/23 11:06:36;;;;;;;4.50;2.10;;;5.80;95.60;13.60;97690.00;;;;5029921;28;20183;-70
2021/01/23 11:09:03;;;;;;;3.73;2.07;;;5.80;95.60;13.60;97693.00;;;;5047181;28;20678;-68